createdAt,value
2023-04-16T00:02:40.063Z,8.24
2023-04-16T00:05:43.215Z,8.19
2023-04-16T00:08:46.016Z,8.14
2023-04-16T00:11:48.955Z,8.19
2023-04-16T00:14:51.486Z,8.08
2023-04-16T00:17:54.325Z,8.05
2023-04-16T00:20:57.268Z,8.01
2023-04-16T00:24:00.390Z,7.97
2023-04-16T00:27:23.185Z,7.91
2023-04-16T00:30:26.588Z,7.82
2023-04-16T00:33:30.198Z,7.76
2023-04-16T00:36:33.086Z,7.72
2023-04-16T00:39:35.643Z,7.60
2023-04-16T00:42:38.402Z,7.55
2023-04-16T00:45:41.005Z,7.77
2023-04-16T00:48:44.350Z,7.50
2023-04-16T00:51:48.165Z,7.40
2023-04-16T00:54:50.998Z,7.36
2023-04-16T00:57:53.514Z,7.36
2023-04-16T01:00:56.838Z,7.40
2023-04-16T01:03:59.716Z,7.32
2023-04-16T01:07:02.950Z,7.35
2023-04-16T01:10:06.135Z,7.37
2023-04-16T01:13:09.159Z,7.27
2023-04-16T01:16:12.791Z,7.25
2023-04-16T01:19:15.828Z,7.34
2023-04-16T01:22:18.347Z,7.35
2023-04-16T01:25:21.267Z,7.31
2023-04-16T01:28:23.873Z,7.26
2023-04-16T01:31:27.211Z,7.27
2023-04-16T01:34:30.577Z,7.24
2023-04-16T01:37:34.003Z,7.28
2023-04-16T01:40:38.050Z,7.30
2023-04-16T01:43:42.526Z,7.28
2023-04-16T01:46:45.342Z,7.26
2023-04-16T01:49:48.420Z,7.25
2023-04-16T01:52:51.251Z,7.17
2023-04-16T01:55:54.120Z,7.18
2023-04-16T01:58:57.030Z,7.15
2023-04-16T02:02:03.841Z,7.03
2023-04-16T02:05:08.572Z,7.01
2023-04-16T02:08:11.253Z,6.99
2023-04-16T02:11:14.216Z,6.97
2023-04-16T02:14:17.064Z,6.98
2023-04-16T02:17:20.067Z,6.98
2023-04-16T02:20:23.118Z,7.03
2023-04-16T02:23:26.182Z,6.84
2023-04-16T02:26:29.799Z,6.78
2023-04-16T02:29:33.954Z,6.69
2023-04-16T02:32:37.112Z,6.65
2023-04-16T02:35:41.301Z,6.66
2023-04-16T02:38:43.946Z,6.59
2023-04-16T02:41:46.994Z,6.45
2023-04-16T02:44:49.879Z,6.57
2023-04-16T02:47:52.871Z,6.41
2023-04-16T02:50:55.744Z,6.38
2023-04-16T02:53:58.667Z,6.40
2023-04-16T02:57:02.424Z,6.53
2023-04-16T03:00:06.605Z,6.19
2023-04-16T03:03:09.307Z,6.23
2023-04-16T03:06:12.807Z,6.17
2023-04-16T03:09:15.490Z,6.19
2023-04-16T03:12:18.415Z,6.16
2023-04-16T03:15:21.035Z,6.16
2023-04-16T03:18:23.928Z,6.24
2023-04-16T03:21:46.326Z,6.22
2023-04-16T03:24:49.588Z,6.12
2023-04-16T03:27:52.233Z,6.07
2023-04-16T03:30:55.735Z,6.08
2023-04-16T03:33:58.288Z,6.15
2023-04-16T03:37:01.566Z,6.16
2023-04-16T03:40:06.222Z,6.18
2023-04-16T03:43:09.207Z,6.12
2023-04-16T03:46:13.143Z,6.13
2023-04-16T03:49:15.974Z,6.10
2023-04-16T03:52:19.080Z,6.09
2023-04-16T03:55:22.197Z,6.05
2023-04-16T03:58:24.872Z,6.02
2023-04-16T04:01:28.147Z,5.97
2023-04-16T04:04:31.238Z,6.07
2023-04-16T04:07:34.155Z,6.12
2023-04-16T04:10:37.296Z,6.10
2023-04-16T04:13:40.383Z,6.13
2023-04-16T04:16:43.689Z,6.16
2023-04-16T04:20:00.134Z,6.17
2023-04-16T04:23:04.511Z,6.25
2023-04-16T04:26:07.577Z,6.30
2023-04-16T04:29:11.194Z,6.29
2023-04-16T04:32:13.918Z,6.25
2023-04-16T04:35:16.763Z,6.44
2023-04-16T04:38:22.093Z,6.47
2023-04-16T04:41:26.990Z,6.57
2023-04-16T04:44:29.692Z,6.56
2023-04-16T04:47:33.033Z,6.61
2023-04-16T04:50:36.891Z,6.61
2023-04-16T04:53:39.862Z,6.64
2023-04-16T04:56:42.340Z,6.69
2023-04-16T04:59:45.945Z,6.73
2023-04-16T05:02:49.789Z,6.71
2023-04-16T05:05:52.932Z,6.82
2023-04-16T05:08:56.023Z,6.94
2023-04-16T05:11:59.285Z,6.95
2023-04-16T05:15:01.842Z,7.03
2023-04-16T05:18:05.675Z,7.20
2023-04-16T05:21:08.615Z,7.18
2023-04-16T05:24:12.565Z,7.31
2023-04-16T05:27:16.900Z,7.28
2023-04-16T05:30:19.958Z,7.38
2023-04-16T05:33:22.532Z,7.47
2023-04-16T05:36:25.499Z,7.42
2023-04-16T05:39:28.091Z,7.49
2023-04-16T05:42:31.074Z,7.69
2023-04-16T05:45:39.597Z,7.71
2023-04-16T05:48:43.347Z,7.84
2023-04-16T05:51:46.036Z,7.72
2023-04-16T05:54:48.837Z,7.70
2023-04-16T05:57:51.600Z,7.82
2023-04-16T06:01:54.584Z,7.84
2023-04-16T06:05:02.304Z,7.88
2023-04-16T06:08:04.962Z,7.85
2023-04-16T06:11:08.296Z,7.95
2023-04-16T06:14:11.194Z,7.98
2023-04-16T06:17:14.266Z,8.24
2023-04-16T06:20:17.733Z,8.36
2023-04-16T06:23:20.543Z,8.35
2023-04-16T06:26:23.085Z,8.33
2023-04-16T06:29:37.067Z,8.48
2023-04-16T06:32:43.716Z,8.63
2023-04-16T06:35:46.612Z,8.87
2023-04-16T06:38:49.160Z,8.89
2023-04-16T06:41:52.415Z,9.09
2023-04-16T06:44:54.945Z,9.19
2023-04-16T06:47:59.131Z,9.36
2023-04-16T06:51:02.187Z,9.41
2023-04-16T06:54:06.236Z,9.65
2023-04-16T06:57:08.777Z,9.63
2023-04-16T07:00:12.313Z,9.74
2023-04-16T07:03:15.090Z,9.85
2023-04-16T07:06:19.909Z,9.98
2023-04-16T07:09:22.393Z,10.16
2023-04-16T07:12:25.517Z,10.26
2023-04-16T07:15:28.011Z,10.43
2023-04-16T07:18:30.845Z,10.66
2023-04-16T07:21:33.400Z,10.72
2023-04-16T07:24:36.308Z,10.72
2023-04-16T07:27:38.986Z,10.80
2023-04-16T07:30:41.801Z,11.04
2023-04-16T07:33:44.469Z,11.17
2023-04-16T07:36:47.314Z,11.16
2023-04-16T07:39:50.137Z,11.29
2023-04-16T07:42:53.051Z,11.25
2023-04-16T07:45:55.896Z,11.31
2023-04-16T07:48:58.730Z,11.44
2023-04-16T07:52:01.403Z,11.63
2023-04-16T07:55:05.172Z,11.80
2023-04-16T07:58:09.524Z,11.94
2023-04-16T08:01:13.073Z,11.90
2023-04-16T08:04:20.218Z,12.10
2023-04-16T08:07:22.886Z,12.22
2023-04-16T08:10:26.228Z,12.29
2023-04-16T08:13:28.859Z,12.39
2023-04-16T08:16:31.865Z,12.49
2023-04-16T08:19:34.802Z,12.42
2023-04-16T08:22:37.704Z,12.63
2023-04-16T08:25:40.316Z,12.81
2023-04-16T08:28:43.337Z,13.00
2023-04-16T08:31:46.589Z,12.99
2023-04-16T08:35:10.428Z,13.24
2023-04-16T08:38:13.976Z,13.16
2023-04-16T08:41:16.883Z,13.41
2023-04-16T08:44:32.769Z,13.67
2023-04-16T08:47:39.022Z,13.67
2023-04-16T08:50:42.169Z,13.92
2023-04-16T08:53:53.695Z,14.10
2023-04-16T08:56:58.276Z,14.24
2023-04-16T09:00:01.515Z,14.37
2023-04-16T09:03:04.904Z,14.28
2023-04-16T09:06:08.888Z,14.50
2023-04-16T09:09:12.974Z,14.57
2023-04-16T09:12:17.457Z,14.61
2023-04-16T09:15:20.970Z,14.55
2023-04-16T09:18:24.507Z,14.58
2023-04-16T09:21:27.994Z,14.51
2023-04-16T09:24:31.417Z,14.75
2023-04-16T09:27:34.494Z,14.95
2023-04-16T09:31:18.938Z,15.10
2023-04-16T09:34:25.692Z,15.10
2023-04-16T09:37:30.140Z,15.13
2023-04-16T09:40:32.696Z,15.20
2023-04-16T09:43:35.735Z,15.35
2023-04-16T09:46:41.761Z,15.44
2023-04-16T09:49:44.811Z,15.49
2023-04-16T09:52:51.401Z,15.58
2023-04-16T09:56:06.211Z,15.76
2023-04-16T09:59:17.549Z,15.78
2023-04-16T10:02:27.469Z,15.77
2023-04-16T10:05:30.740Z,15.77
2023-04-16T10:08:34.308Z,15.86
2023-04-16T10:11:37.425Z,15.94
2023-04-16T10:14:41.177Z,15.94
2023-04-16T10:17:44.187Z,15.95
2023-04-16T10:20:46.985Z,15.99
2023-04-16T10:23:52.098Z,16.06
2023-04-16T10:26:55.432Z,15.90
2023-04-16T10:29:58.559Z,15.91
2023-04-16T10:33:02.513Z,16.03
2023-04-16T10:36:13.869Z,15.83
2023-04-16T10:39:21.863Z,16.09
2023-04-16T10:42:26.052Z,16.13
2023-04-16T10:45:47.925Z,16.20
2023-04-16T10:48:54.302Z,16.42
2023-04-16T10:52:02.378Z,16.77
2023-04-16T10:55:06.302Z,16.67
2023-04-16T10:58:27.935Z,16.92
2023-04-16T11:01:36.181Z,17.19
2023-04-16T11:04:40.409Z,17.34
2023-04-16T11:07:49.626Z,17.50
2023-04-16T11:10:53.040Z,17.38
2023-04-16T11:13:57.120Z,17.47
2023-04-16T11:17:03.627Z,17.56
2023-04-16T11:20:20.223Z,17.57
2023-04-16T11:23:23.523Z,17.71
2023-04-16T11:26:31.015Z,17.60
2023-04-16T11:29:36.063Z,17.70
2023-04-16T11:32:39.530Z,17.85
2023-04-16T11:35:46.130Z,17.63
2023-04-16T11:38:49.229Z,17.54
2023-04-16T11:41:56.051Z,17.74
2023-04-16T11:45:03.124Z,18.10
2023-04-16T11:48:05.906Z,18.25
2023-04-16T11:51:08.975Z,18.32
2023-04-16T11:54:21.469Z,18.07
2023-04-16T11:57:31.853Z,17.93
2023-04-16T12:00:37.581Z,17.66
2023-04-16T12:03:46.182Z,17.90
2023-04-16T12:07:11.037Z,18.07
2023-04-16T12:10:13.945Z,18.18
2023-04-16T12:13:17.740Z,17.92
2023-04-16T12:16:21.061Z,18.08
2023-04-16T12:19:23.933Z,18.18
2023-04-16T12:22:36.730Z,17.99
2023-04-16T12:25:42.905Z,18.15
2023-04-16T12:28:47.453Z,18.06
2023-04-16T12:31:51.293Z,18.17
2023-04-16T12:34:54.172Z,18.12
2023-04-16T12:37:56.902Z,18.28
2023-04-16T12:41:02.371Z,18.21
2023-04-16T12:44:18.253Z,18.23
2023-04-16T12:47:21.218Z,17.94
2023-04-16T12:50:23.911Z,18.13
2023-04-16T12:53:27.222Z,18.17
2023-04-16T12:56:30.732Z,18.11
2023-04-16T12:59:33.650Z,18.11
2023-04-16T13:02:36.800Z,18.11
2023-04-16T13:05:40.625Z,18.25
2023-04-16T13:08:44.486Z,18.43
2023-04-16T13:11:47.604Z,18.57
2023-04-16T13:14:50.181Z,18.51
2023-04-16T13:17:53.116Z,18.70
2023-04-16T13:20:55.908Z,18.68
2023-04-16T13:23:59.658Z,18.80
2023-04-16T13:27:02.219Z,18.81
2023-04-16T13:30:05.860Z,18.97
2023-04-16T13:33:09.457Z,19.00
2023-04-16T13:36:13.117Z,18.72
2023-04-16T13:39:16.499Z,18.91
2023-04-16T13:42:19.335Z,19.16
2023-04-16T13:45:22.058Z,19.20
2023-04-16T13:48:28.053Z,19.09
2023-04-16T13:51:30.557Z,19.02
2023-04-16T13:54:33.459Z,19.03
2023-04-16T13:57:36.485Z,19.09
2023-04-16T14:00:39.486Z,18.87
2023-04-16T14:03:42.529Z,18.75
2023-04-16T14:06:45.684Z,18.82
2023-04-16T14:09:48.630Z,19.02
2023-04-16T14:12:51.837Z,19.25
2023-04-16T14:15:55.759Z,19.50
2023-04-16T14:18:58.559Z,19.51
2023-04-16T14:22:01.409Z,19.42
2023-04-16T14:25:04.278Z,19.10
2023-04-16T14:28:07.356Z,19.22
2023-04-16T14:31:10.631Z,19.17
2023-04-16T14:34:13.601Z,19.10
2023-04-16T14:37:17.509Z,19.02
2023-04-16T14:40:20.458Z,19.23
2023-04-16T14:43:23.084Z,19.21
2023-04-16T14:46:27.134Z,19.16
2023-04-16T14:49:30.166Z,19.14
2023-04-16T14:52:33.162Z,19.01
2023-04-16T14:55:35.749Z,18.95
2023-04-16T14:58:39.396Z,18.88
2023-04-16T15:01:42.889Z,18.93
2023-04-16T15:04:46.618Z,19.06
2023-04-16T15:07:49.433Z,19.09
2023-04-16T15:10:52.675Z,19.08
2023-04-16T15:13:56.046Z,19.20
2023-04-16T15:16:59.121Z,18.88
2023-04-16T15:20:01.759Z,18.82
2023-04-16T15:23:04.729Z,18.74
2023-04-16T15:26:07.574Z,18.63
2023-04-16T15:29:10.869Z,18.61
2023-04-16T15:32:13.557Z,18.47
2023-04-16T15:35:16.429Z,18.67
2023-04-16T15:38:21.519Z,18.63
2023-04-16T15:41:25.006Z,18.63
2023-04-16T15:44:54.202Z,18.33
2023-04-16T15:47:57.271Z,18.33
2023-04-16T15:51:05.461Z,18.36
2023-04-16T15:54:56.585Z,18.24
2023-04-16T15:58:18.176Z,18.19
2023-04-16T16:01:22.327Z,17.96
2023-04-16T16:04:26.658Z,17.87
2023-04-16T16:07:29.773Z,17.77
2023-04-16T16:10:34.327Z,17.76
2023-04-16T16:13:38.085Z,17.45
2023-04-16T16:16:42.387Z,17.34
2023-04-16T16:19:46.728Z,17.35
2023-04-16T16:23:00.126Z,17.33
2023-04-16T16:26:26.890Z,17.25
2023-04-16T16:29:56.621Z,17.31
2023-04-16T16:33:08.104Z,17.08
2023-04-16T16:36:11.776Z,17.12
2023-04-16T16:39:14.835Z,17.02
2023-04-16T16:42:18.883Z,17.01
2023-04-16T16:45:21.848Z,16.98
2023-04-16T16:48:25.426Z,16.89
2023-04-16T16:51:30.457Z,16.88
2023-04-16T16:54:33.578Z,16.86
2023-04-16T16:57:36.954Z,16.75
2023-04-16T17:00:40.334Z,16.80
2023-04-16T17:03:43.274Z,16.76
2023-04-16T17:06:46.989Z,16.72
2023-04-16T17:09:50.718Z,16.66
2023-04-16T17:12:54.113Z,16.57
2023-04-16T17:15:57.066Z,16.65
2023-04-16T17:19:01.375Z,16.54
2023-04-16T17:22:05.187Z,16.52
2023-04-16T17:25:08.991Z,16.46
2023-04-16T17:28:11.772Z,16.45
2023-04-16T17:31:15.524Z,16.40
2023-04-16T17:34:19.661Z,16.30
2023-04-16T17:37:24.577Z,16.29
2023-04-16T17:40:27.521Z,16.23
2023-04-16T17:43:30.828Z,16.18
2023-04-16T17:46:33.758Z,16.17
2023-04-16T17:49:39.653Z,16.12
2023-04-16T17:52:42.555Z,16.06
2023-04-16T17:55:56.837Z,15.97
2023-04-16T17:59:00.792Z,15.82
2023-04-16T18:02:04.359Z,15.87
2023-04-16T18:05:10.455Z,15.81
2023-04-16T18:08:16.975Z,15.79
2023-04-16T18:11:22.831Z,15.65
2023-04-16T18:14:26.360Z,15.59
2023-04-16T18:17:30.037Z,15.71
2023-04-16T18:20:35.765Z,15.56
2023-04-16T18:23:39.170Z,15.34
2023-04-16T18:26:42.517Z,15.25
2023-04-16T18:29:49.369Z,15.31
2023-04-16T18:33:13.164Z,15.29
2023-04-16T18:36:16.564Z,15.25
2023-04-16T18:39:19.406Z,15.26
2023-04-16T18:42:28.308Z,15.11
2023-04-16T18:45:34.362Z,15.00
2023-04-16T18:48:38.174Z,14.97
2023-04-16T18:51:42.270Z,14.85
2023-04-16T18:54:45.890Z,14.78
2023-04-16T18:57:49.306Z,14.77
2023-04-16T19:00:59.573Z,14.84
2023-04-16T19:04:03.549Z,14.71
2023-04-16T19:07:07.375Z,14.67
2023-04-16T19:10:10.712Z,14.62
2023-04-16T19:13:17.211Z,14.49
2023-04-16T19:16:20.929Z,14.45
2023-04-16T19:19:24.771Z,14.51
2023-04-16T19:22:28.129Z,14.41
2023-04-16T19:25:32.611Z,14.33
2023-04-16T19:28:35.682Z,14.27
2023-04-16T19:31:39.215Z,14.23
2023-04-16T19:34:42.284Z,14.24
2023-04-16T19:37:46.486Z,14.29
2023-04-16T19:40:49.507Z,14.18
2023-04-16T19:43:54.771Z,14.09
2023-04-16T19:46:59.221Z,14.06
2023-04-16T19:50:08.500Z,14.11
2023-04-16T19:53:12.056Z,13.96
2023-04-16T19:56:17.093Z,13.98
2023-04-16T19:59:20.729Z,13.92
2023-04-16T20:02:24.209Z,13.94
2023-04-16T20:05:29.359Z,13.94
2023-04-16T20:08:32.285Z,13.85
2023-04-16T20:11:35.848Z,13.81
2023-04-16T20:14:39.040Z,13.85
2023-04-16T20:17:42.414Z,13.82
2023-04-16T20:20:47.302Z,13.83
2023-04-16T20:23:50.125Z,13.74
2023-04-16T20:26:53.694Z,13.75
2023-04-16T20:29:56.942Z,13.74
2023-04-16T20:32:59.688Z,13.77
2023-04-16T20:36:02.760Z,13.74
2023-04-16T20:39:07.922Z,13.73
2023-04-16T20:42:11.654Z,13.71
2023-04-16T20:45:14.367Z,13.68
2023-04-16T20:48:17.484Z,13.70
2023-04-16T20:51:21.523Z,13.77
2023-04-16T20:54:24.404Z,13.77
2023-04-16T20:57:29.426Z,13.71
2023-04-16T21:00:32.342Z,13.73
2023-04-16T21:03:35.432Z,13.68
2023-04-16T21:06:43.093Z,13.64
2023-04-16T21:09:45.851Z,13.71
2023-04-16T21:12:48.864Z,13.64
2023-04-16T21:15:51.512Z,13.67
2023-04-16T21:18:55.754Z,13.73
2023-04-16T21:21:58.550Z,13.57
2023-04-16T21:25:02.566Z,13.60
2023-04-16T21:28:05.447Z,13.53
2023-04-16T21:31:08.396Z,13.57
2023-04-16T21:34:10.986Z,13.54
2023-04-16T21:37:13.784Z,13.42
2023-04-16T21:40:16.598Z,13.40
2023-04-16T21:43:24.021Z,13.44
2023-04-16T21:46:29.724Z,13.37
2023-04-16T21:49:32.789Z,13.35
2023-04-16T21:52:40.590Z,13.35
2023-04-16T21:55:43.912Z,13.27
2023-04-16T21:58:46.520Z,13.28
2023-04-16T22:01:49.433Z,13.25
2023-04-16T22:04:52.426Z,13.21
2023-04-16T22:07:55.014Z,13.15
2023-04-16T22:10:59.283Z,13.21
2023-04-16T22:14:08.853Z,13.15
2023-04-16T22:17:12.864Z,13.10
2023-04-16T22:20:16.595Z,13.07
2023-04-16T22:23:28.436Z,13.05
2023-04-16T22:27:15.888Z,13.15
2023-04-16T22:30:31.446Z,12.99
2023-04-16T22:34:15.985Z,13.06
2023-04-16T22:37:24.693Z,13.05
2023-04-16T22:40:31.578Z,12.96
2023-04-16T22:43:37.189Z,12.89
2023-04-16T22:46:40.862Z,12.91
2023-04-16T22:49:43.740Z,12.94
2023-04-16T22:52:46.529Z,12.86
2023-04-16T22:55:49.368Z,12.80
2023-04-16T22:58:52.877Z,12.92
2023-04-16T23:01:56.056Z,12.93
2023-04-16T23:05:00.696Z,12.95
2023-04-16T23:08:03.678Z,12.95
2023-04-16T23:11:06.432Z,12.91
2023-04-16T23:14:09.824Z,12.88
2023-04-16T23:17:13.792Z,12.99
2023-04-16T23:20:16.688Z,12.84
2023-04-16T23:23:19.680Z,12.90
2023-04-16T23:26:22.624Z,12.84
2023-04-16T23:29:25.302Z,12.89
2023-04-16T23:32:28.268Z,12.89
2023-04-16T23:35:31.006Z,13.08
2023-04-16T23:38:34.103Z,12.92
2023-04-16T23:41:36.645Z,12.85
2023-04-16T23:44:39.522Z,12.92
2023-04-16T23:47:42.374Z,12.93
2023-04-16T23:51:01.172Z,12.88
2023-04-16T23:54:04.357Z,12.91
2023-04-16T23:57:07.164Z,12.85
